EJA209 KPDK-KEYW
Flight info
| Callsign | EJA209 |
|---|---|
| Flight time | N/A |
| Altitude | 41000 |
| Route | SOONE NOKIE OTK PIE CARNU |
| Aircraft | CL60/M-SADE3FGHIJ3J4J7P2RWXY/HB1D1 |
Departure
| Time | 2026-04-30 22:53 |
|---|---|
| Airport | DeKalb Peachtree Airport (KPDK) |
Arrival
| Time | N/A |
|---|---|
| Airport | Key West International Airport (KEYW) |
| Time | Latitude | Longitude | Altitude | Speed | Heading |
|---|---|---|---|---|---|
| 2026-04-30 22:10 | 33.88087 | -84.30177 | 983 ft | 0 kts | 287° |
| 2026-04-30 22:48 | 33.88088 | -84.30181 | 983 ft | 0 kts | 282° |
| 2026-04-30 22:49 | 33.87998 | -84.30177 | 982 ft | 9 kts | 88° |
| 2026-04-30 22:49 | 33.88190 | -84.30066 | 981 ft | 14 kts | 22° |
| 2026-04-30 22:50 | 33.88451 | -84.29883 | 979 ft | 10 kts | 113° |
| 2026-04-30 22:51 | 33.88428 | -84.29809 | 975 ft | 0 kts | 109° |
| 2026-04-30 22:51 | 33.88413 | -84.29761 | 973 ft | 8 kts | 110° |
| 2026-04-30 22:52 | 33.88391 | -84.29713 | 970 ft | 7 kts | 175° |
| 2026-04-30 22:52 | 33.87902 | -84.29929 | 973 ft | 124 kts | 200° |
| 2026-04-30 22:53 | 33.85618 | -84.30891 | 1981 ft | 205 kts | 203° |
| 2026-04-30 22:53 | 33.83725 | -84.33410 | 3118 ft | 211 kts | 261° |
| 2026-04-30 22:53 | 33.83426 | -84.35162 | 3360 ft | 215 kts | 264° |
| 2026-04-30 22:54 | 33.82878 | -84.38776 | 3116 ft | 216 kts | 264° |
| 2026-04-30 22:55 | 33.82101 | -84.43985 | 4734 ft | 233 kts | 264° |
| 2026-04-30 22:55 | 33.81568 | -84.48143 | 6921 ft | 269 kts | 264° |
| 2026-04-30 22:56 | 33.81032 | -84.52593 | 9416 ft | 280 kts | 258° |
| 2026-04-30 22:56 | 33.76375 | -84.57336 | 11954 ft | 352 kts | 193° |
| 2026-04-30 22:57 | 33.71559 | -84.55678 | 14061 ft | 389 kts | 148° |
| 2026-04-30 22:57 | 33.67159 | -84.51644 | 15992 ft | 407 kts | 147° |
| 2026-04-30 22:58 | 33.62592 | -84.47485 | 17860 ft | 421 kts | 147° |
| 2026-04-30 22:59 | 33.55387 | -84.40973 | 20086 ft | 446 kts | 149° |
| 2026-04-30 22:59 | 33.47750 | -84.34114 | 22061 ft | 468 kts | 151° |